sensor_id;sensor_type;location;lat;lon;timestamp;P1;durP1;ratioP1;P2;durP2;ratioP2
31210;SDS011;17836;50.948;3.946;2023-02-13T00:01:07;62.55;;;33.53;;
31210;SDS011;17836;50.948;3.946;2023-02-13T00:03:32;61.30;;;34.07;;
31210;SDS011;17836;50.948;3.946;2023-02-13T00:05:58;62.13;;;34.38;;
31210;SDS011;17836;50.948;3.946;2023-02-13T00:08:23;58.60;;;33.55;;
31210;SDS011;17836;50.948;3.946;2023-02-13T00:10:48;63.93;;;33.87;;
31210;SDS011;17836;50.948;3.946;2023-02-13T00:13:14;60.42;;;34.42;;
31210;SDS011;17836;50.948;3.946;2023-02-13T00:15:39;64.07;;;34.92;;
31210;SDS011;17836;50.948;3.946;2023-02-13T00:18:04;66.37;;;35.90;;
31210;SDS011;17836;50.948;3.946;2023-02-13T00:20:30;72.10;;;37.50;;
31210;SDS011;17836;50.948;3.946;2023-02-13T00:22:56;69.93;;;35.13;;
31210;SDS011;17836;50.948;3.946;2023-02-13T00:25:22;71.53;;;37.28;;
31210;SDS011;17836;50.948;3.946;2023-02-13T00:27:47;71.85;;;34.70;;
31210;SDS011;17836;50.948;3.946;2023-02-13T00:30:15;73.72;;;36.10;;
31210;SDS011;17836;50.948;3.946;2023-02-13T00:32:40;69.13;;;36.83;;
31210;SDS011;17836;50.948;3.946;2023-02-13T00:35:05;72.05;;;36.38;;
31210;SDS011;17836;50.948;3.946;2023-02-13T00:37:31;67.63;;;35.97;;
31210;SDS011;17836;50.948;3.946;2023-02-13T00:39:57;68.93;;;37.05;;
31210;SDS011;17836;50.948;3.946;2023-02-13T00:42:22;66.70;;;34.38;;
31210;SDS011;17836;50.948;3.946;2023-02-13T00:44:50;71.38;;;36.72;;
31210;SDS011;17836;50.948;3.946;2023-02-13T00:47:15;70.97;;;36.30;;
31210;SDS011;17836;50.948;3.946;2023-02-13T00:49:40;71.55;;;37.60;;
31210;SDS011;17836;50.948;3.946;2023-02-13T00:52:06;70.03;;;35.73;;
31210;SDS011;17836;50.948;3.946;2023-02-13T00:54:31;70.57;;;36.63;;
31210;SDS011;17836;50.948;3.946;2023-02-13T00:56:56;69.95;;;35.70;;
31210;SDS011;17836;50.948;3.946;2023-02-13T00:59:22;72.82;;;36.03;;
31210;SDS011;17836;50.948;3.946;2023-02-13T01:01:47;73.17;;;37.13;;
31210;SDS011;17836;50.948;3.946;2023-02-13T01:04:13;70.80;;;36.63;;
31210;SDS011;17836;50.948;3.946;2023-02-13T01:06:38;68.00;;;34.50;;
31210;SDS011;17836;50.948;3.946;2023-02-13T01:09:03;70.85;;;36.05;;
31210;SDS011;17836;50.948;3.946;2023-02-13T01:11:28;74.57;;;35.37;;
31210;SDS011;17836;50.948;3.946;2023-02-13T01:13:54;73.25;;;36.08;;
31210;SDS011;17836;50.948;3.946;2023-02-13T01:16:19;75.00;;;37.40;;
31210;SDS011;17836;50.948;3.946;2023-02-13T01:18:44;74.63;;;37.90;;
31210;SDS011;17836;50.948;3.946;2023-02-13T01:21:14;79.68;;;38.03;;
31210;SDS011;17836;50.948;3.946;2023-02-13T01:23:40;83.30;;;39.47;;
31210;SDS011;17836;50.948;3.946;2023-02-13T01:26:06;80.77;;;37.83;;
31210;SDS011;17836;50.948;3.946;2023-02-13T01:28:31;79.40;;;38.83;;
31210;SDS011;17836;50.948;3.946;2023-02-13T01:30:57;72.82;;;35.55;;
31210;SDS011;17836;50.948;3.946;2023-02-13T01:33:23;71.10;;;33.97;;
31210;SDS011;17836;50.948;3.946;2023-02-13T01:35:49;72.32;;;35.05;;
31210;SDS011;17836;50.948;3.946;2023-02-13T01:38:14;64.53;;;33.72;;
31210;SDS011;17836;50.948;3.946;2023-02-13T01:40:46;64.55;;;33.38;;
31210;SDS011;17836;50.948;3.946;2023-02-13T01:43:12;61.63;;;31.48;;
31210;SDS011;17836;50.948;3.946;2023-02-13T01:45:37;58.78;;;31.13;;
31210;SDS011;17836;50.948;3.946;2023-02-13T01:48:06;64.35;;;32.83;;
31210;SDS011;17836;50.948;3.946;2023-02-13T01:55:25;64.38;;;31.70;;
31210;SDS011;17836;50.948;3.946;2023-02-13T01:57:53;67.57;;;33.15;;
31210;SDS011;17836;50.948;3.946;2023-02-13T02:00:21;63.80;;;31.33;;
31210;SDS011;17836;50.948;3.946;2023-02-13T02:02:50;67.13;;;33.55;;
31210;SDS011;17836;50.948;3.946;2023-02-13T02:05:19;66.45;;;33.13;;
31210;SDS011;17836;50.948;3.946;2023-02-13T02:07:45;60.00;;;30.58;;
31210;SDS011;17836;50.948;3.946;2023-02-13T02:10:13;61.85;;;32.10;;
31210;SDS011;17836;50.948;3.946;2023-02-13T02:12:45;59.55;;;32.50;;
31210;SDS011;17836;50.948;3.946;2023-02-13T02:15:11;60.03;;;30.92;;
31210;SDS011;17836;50.948;3.946;2023-02-13T02:17:37;60.83;;;31.08;;
31210;SDS011;17836;50.948;3.946;2023-02-13T02:38:22;57.70;;;29.10;;
31210;SDS011;17836;50.948;3.946;2023-02-13T02:43:29;54.00;;;27.33;;
31210;SDS011;17836;50.948;3.946;2023-02-13T02:56:52;54.55;;;25.27;;
31210;SDS011;17836;50.948;3.946;2023-02-13T02:59:19;54.92;;;27.13;;
31210;SDS011;17836;50.948;3.946;2023-02-13T03:02:03;54.92;;;28.25;;
31210;SDS011;17836;50.948;3.946;2023-02-13T03:04:52;54.20;;;27.52;;
31210;SDS011;17836;50.948;3.946;2023-02-13T03:07:37;53.28;;;26.90;;
31210;SDS011;17836;50.948;3.946;2023-02-13T03:10:03;45.65;;;23.45;;
31210;SDS011;17836;50.948;3.946;2023-02-13T03:15:32;43.20;;;21.15;;
31210;SDS011;17836;50.948;3.946;2023-02-13T03:17:59;45.53;;;22.30;;
31210;SDS011;17836;50.948;3.946;2023-02-13T03:21:18;40.97;;;20.73;;
31210;SDS011;17836;50.948;3.946;2023-02-13T03:23:59;44.40;;;22.75;;
31210;SDS011;17836;50.948;3.946;2023-02-13T03:34:48;53.00;;;25.48;;
31210;SDS011;17836;50.948;3.946;2023-02-13T03:37:34;60.33;;;25.60;;
31210;SDS011;17836;50.948;3.946;2023-02-13T03:40:32;63.05;;;27.67;;
31210;SDS011;17836;50.948;3.946;2023-02-13T03:43:12;60.38;;;27.23;;
31210;SDS011;17836;50.948;3.946;2023-02-13T03:45:38;57.40;;;26.83;;
31210;SDS011;17836;50.948;3.946;2023-02-13T03:48:22;55.15;;;27.85;;
31210;SDS011;17836;50.948;3.946;2023-02-13T03:51:07;71.65;;;29.88;;
31210;SDS011;17836;50.948;3.946;2023-02-13T03:53:34;152.40;;;35.50;;
31210;SDS011;17836;50.948;3.946;2023-02-13T03:56:00;78.68;;;32.50;;
31210;SDS011;17836;50.948;3.946;2023-02-13T03:58:45;77.55;;;31.05;;
31210;SDS011;17836;50.948;3.946;2023-02-13T04:01:31;118.75;;;27.20;;
31210;SDS011;17836;50.948;3.946;2023-02-13T04:04:00;122.00;;;28.45;;
31210;SDS011;17836;50.948;3.946;2023-02-13T04:06:31;95.45;;;27.50;;
31210;SDS011;17836;50.948;3.946;2023-02-13T04:08:56;65.45;;;26.73;;
31210;SDS011;17836;50.948;3.946;2023-02-13T04:13:49;75.50;;;27.63;;
31210;SDS011;17836;50.948;3.946;2023-02-13T04:16:20;91.43;;;28.45;;
31210;SDS011;17836;50.948;3.946;2023-02-13T04:18:47;131.57;;;28.38;;
31210;SDS011;17836;50.948;3.946;2023-02-13T04:21:13;94.18;;;28.85;;
31210;SDS011;17836;50.948;3.946;2023-02-13T04:23:38;78.80;;;29.20;;
31210;SDS011;17836;50.948;3.946;2023-02-13T04:26:07;79.87;;;30.17;;
31210;SDS011;17836;50.948;3.946;2023-02-13T04:28:36;100.63;;;32.95;;
31210;SDS011;17836;50.948;3.946;2023-02-13T04:31:01;85.50;;;33.07;;
31210;SDS011;17836;50.948;3.946;2023-02-13T04:33:27;75.28;;;30.90;;
31210;SDS011;17836;50.948;3.946;2023-02-13T04:35:52;98.55;;;32.17;;
31210;SDS011;17836;50.948;3.946;2023-02-13T04:38:17;111.40;;;32.10;;
31210;SDS011;17836;50.948;3.946;2023-02-13T04:40:42;120.70;;;33.10;;
31210;SDS011;17836;50.948;3.946;2023-02-13T04:43:08;178.33;;;35.13;;
31210;SDS011;17836;50.948;3.946;2023-02-13T04:45:33;189.13;;;33.38;;
31210;SDS011;17836;50.948;3.946;2023-02-13T04:47:59;149.48;;;34.10;;
31210;SDS011;17836;50.948;3.946;2023-02-13T04:50:24;144.90;;;30.92;;
31210;SDS011;17836;50.948;3.946;2023-02-13T04:52:53;125.28;;;30.20;;
31210;SDS011;17836;50.948;3.946;2023-02-13T04:55:19;133.02;;;31.20;;
31210;SDS011;17836;50.948;3.946;2023-02-13T04:57:44;191.52;;;33.95;;
31210;SDS011;17836;50.948;3.946;2023-02-13T05:00:10;106.57;;;31.20;;
31210;SDS011;17836;50.948;3.946;2023-02-13T05:02:36;118.72;;;32.13;;
31210;SDS011;17836;50.948;3.946;2023-02-13T05:05:01;94.15;;;32.38;;
31210;SDS011;17836;50.948;3.946;2023-02-13T05:07:27;76.88;;;29.27;;
31210;SDS011;17836;50.948;3.946;2023-02-13T05:09:52;78.50;;;27.70;;
31210;SDS011;17836;50.948;3.946;2023-02-13T05:12:18;74.63;;;29.30;;
31210;SDS011;17836;50.948;3.946;2023-02-13T05:14:43;58.77;;;27.20;;
31210;SDS011;17836;50.948;3.946;2023-02-13T05:17:08;57.40;;;25.70;;
31210;SDS011;17836;50.948;3.946;2023-02-13T05:19:34;77.70;;;25.90;;
31210;SDS011;17836;50.948;3.946;2023-02-13T05:21:59;92.28;;;26.33;;
31210;SDS011;17836;50.948;3.946;2023-02-13T05:24:43;104.45;;;27.58;;
31210;SDS011;17836;50.948;3.946;2023-02-13T05:27:08;85.17;;;25.97;;
31210;SDS011;17836;50.948;3.946;2023-02-13T05:29:34;94.22;;;28.02;;
31210;SDS011;17836;50.948;3.946;2023-02-13T05:31:59;95.57;;;29.87;;
31210;SDS011;17836;50.948;3.946;2023-02-13T05:34:25;104.60;;;30.10;;
31210;SDS011;17836;50.948;3.946;2023-02-13T05:36:51;98.68;;;28.85;;
31210;SDS011;17836;50.948;3.946;2023-02-13T05:39:16;76.65;;;26.98;;
31210;SDS011;17836;50.948;3.946;2023-02-13T05:41:42;89.55;;;26.50;;
31210;SDS011;17836;50.948;3.946;2023-02-13T05:44:08;88.88;;;28.95;;
31210;SDS011;17836;50.948;3.946;2023-02-13T05:46:33;79.10;;;29.08;;
31210;SDS011;17836;50.948;3.946;2023-02-13T05:48:58;87.45;;;27.83;;
31210;SDS011;17836;50.948;3.946;2023-02-13T05:51:24;110.03;;;28.55;;
31210;SDS011;17836;50.948;3.946;2023-02-13T05:53:49;130.93;;;28.25;;
31210;SDS011;17836;50.948;3.946;2023-02-13T05:56:14;171.30;;;30.42;;
31210;SDS011;17836;50.948;3.946;2023-02-13T05:58:40;121.43;;;29.55;;
31210;SDS011;17836;50.948;3.946;2023-02-13T06:01:06;150.82;;;28.52;;
31210;SDS011;17836;50.948;3.946;2023-02-13T06:03:32;138.13;;;29.55;;
31210;SDS011;17836;50.948;3.946;2023-02-13T06:05:58;143.52;;;29.10;;
31210;SDS011;17836;50.948;3.946;2023-02-13T06:08:23;104.03;;;28.88;;
31210;SDS011;17836;50.948;3.946;2023-02-13T06:10:49;103.25;;;27.40;;
31210;SDS011;17836;50.948;3.946;2023-02-13T06:13:15;113.82;;;26.60;;
31210;SDS011;17836;50.948;3.946;2023-02-13T06:15:40;115.82;;;28.00;;
31210;SDS011;17836;50.948;3.946;2023-02-13T06:18:06;130.13;;;27.05;;
31210;SDS011;17836;50.948;3.946;2023-02-13T06:20:31;78.50;;;24.73;;
31210;SDS011;17836;50.948;3.946;2023-02-13T06:22:56;65.10;;;23.38;;
31210;SDS011;17836;50.948;3.946;2023-02-13T06:25:22;89.32;;;23.25;;
31210;SDS011;17836;50.948;3.946;2023-02-13T06:27:47;76.50;;;21.92;;
31210;SDS011;17836;50.948;3.946;2023-02-13T06:30:13;104.05;;;23.65;;
31210;SDS011;17836;50.948;3.946;2023-02-13T06:32:38;86.30;;;23.23;;
31210;SDS011;17836;50.948;3.946;2023-02-13T06:35:04;81.28;;;23.00;;
31210;SDS011;17836;50.948;3.946;2023-02-13T06:37:30;81.25;;;24.27;;
31210;SDS011;17836;50.948;3.946;2023-02-13T06:39:56;95.13;;;24.20;;
31210;SDS011;17836;50.948;3.946;2023-02-13T06:42:21;97.70;;;24.23;;
31210;SDS011;17836;50.948;3.946;2023-02-13T06:44:47;72.88;;;24.15;;
31210;SDS011;17836;50.948;3.946;2023-02-13T06:47:13;82.72;;;24.25;;
31210;SDS011;17836;50.948;3.946;2023-02-13T06:49:39;82.80;;;23.92;;
31210;SDS011;17836;50.948;3.946;2023-02-13T06:52:04;83.43;;;25.70;;
31210;SDS011;17836;50.948;3.946;2023-02-13T06:54:30;60.13;;;24.40;;
31210;SDS011;17836;50.948;3.946;2023-02-13T06:56:55;64.47;;;23.13;;
31210;SDS011;17836;50.948;3.946;2023-02-13T06:59:20;53.05;;;23.42;;
31210;SDS011;17836;50.948;3.946;2023-02-13T07:01:46;59.70;;;23.55;;
31210;SDS011;17836;50.948;3.946;2023-02-13T07:04:11;58.00;;;24.85;;
31210;SDS011;17836;50.948;3.946;2023-02-13T07:06:37;47.87;;;22.27;;
31210;SDS011;17836;50.948;3.946;2023-02-13T07:09:02;42.28;;;21.77;;
31210;SDS011;17836;50.948;3.946;2023-02-13T07:11:28;41.55;;;22.23;;
31210;SDS011;17836;50.948;3.946;2023-02-13T07:13:54;43.45;;;22.45;;
31210;SDS011;17836;50.948;3.946;2023-02-13T07:16:19;37.90;;;21.52;;
31210;SDS011;17836;50.948;3.946;2023-02-13T07:18:45;40.77;;;22.67;;
31210;SDS011;17836;50.948;3.946;2023-02-13T07:21:10;43.90;;;23.83;;
31210;SDS011;17836;50.948;3.946;2023-02-13T07:23:35;45.00;;;25.10;;
31210;SDS011;17836;50.948;3.946;2023-02-13T07:26:01;47.65;;;25.65;;
31210;SDS011;17836;50.948;3.946;2023-02-13T07:28:27;50.72;;;27.88;;
31210;SDS011;17836;50.948;3.946;2023-02-13T07:30:53;47.60;;;26.35;;
31210;SDS011;17836;50.948;3.946;2023-02-13T07:33:18;41.27;;;24.50;;
31210;SDS011;17836;50.948;3.946;2023-02-13T07:35:47;46.93;;;24.10;;
31210;SDS011;17836;50.948;3.946;2023-02-13T07:38:12;43.33;;;22.95;;
31210;SDS011;17836;50.948;3.946;2023-02-13T07:40:37;40.63;;;24.00;;
31210;SDS011;17836;50.948;3.946;2023-02-13T07:43:03;39.20;;;22.57;;
31210;SDS011;17836;50.948;3.946;2023-02-13T07:45:28;40.90;;;22.20;;
31210;SDS011;17836;50.948;3.946;2023-02-13T07:47:54;38.20;;;22.33;;
31210;SDS011;17836;50.948;3.946;2023-02-13T07:50:20;42.20;;;23.80;;
31210;SDS011;17836;50.948;3.946;2023-02-13T07:52:51;51.97;;;27.07;;
31210;SDS011;17836;50.948;3.946;2023-02-13T07:55:17;50.42;;;28.77;;
31210;SDS011;17836;50.948;3.946;2023-02-13T07:57:42;51.70;;;27.40;;
31210;SDS011;17836;50.948;3.946;2023-02-13T08:00:08;55.70;;;28.27;;
31210;SDS011;17836;50.948;3.946;2023-02-13T08:02:34;57.53;;;28.17;;
31210;SDS011;17836;50.948;3.946;2023-02-13T08:05:00;56.83;;;27.30;;
31210;SDS011;17836;50.948;3.946;2023-02-13T08:07:25;48.97;;;25.92;;
31210;SDS011;17836;50.948;3.946;2023-02-13T08:09:50;50.58;;;27.75;;
31210;SDS011;17836;50.948;3.946;2023-02-13T08:12:34;58.65;;;27.80;;
31210;SDS011;17836;50.948;3.946;2023-02-13T08:15:00;55.35;;;28.83;;
31210;SDS011;17836;50.948;3.946;2023-02-13T08:17:25;64.77;;;34.13;;
31210;SDS011;17836;50.948;3.946;2023-02-13T08:19:50;68.20;;;34.87;;
31210;SDS011;17836;50.948;3.946;2023-02-13T08:22:16;60.97;;;32.53;;
31210;SDS011;17836;50.948;3.946;2023-02-13T08:24:41;59.83;;;31.13;;
31210;SDS011;17836;50.948;3.946;2023-02-13T08:27:08;69.03;;;36.33;;
31210;SDS011;17836;50.948;3.946;2023-02-13T08:29:35;82.90;;;43.17;;
31210;SDS011;17836;50.948;3.946;2023-02-13T08:32:00;65.27;;;36.90;;
31210;SDS011;17836;50.948;3.946;2023-02-13T08:34:26;65.93;;;35.85;;
31210;SDS011;17836;50.948;3.946;2023-02-13T08:36:52;74.70;;;38.88;;
31210;SDS011;17836;50.948;3.946;2023-02-13T08:39:18;60.77;;;35.13;;
31210;SDS011;17836;50.948;3.946;2023-02-13T08:41:43;69.90;;;37.33;;
31210;SDS011;17836;50.948;3.946;2023-02-13T08:44:09;71.25;;;38.80;;
31210;SDS011;17836;50.948;3.946;2023-02-13T08:46:34;73.00;;;38.30;;
31210;SDS011;17836;50.948;3.946;2023-02-13T08:48:59;75.23;;;38.33;;
31210;SDS011;17836;50.948;3.946;2023-02-13T08:51:24;82.75;;;44.40;;
31210;SDS011;17836;50.948;3.946;2023-02-13T08:53:50;88.15;;;45.58;;
31210;SDS011;17836;50.948;3.946;2023-02-13T08:56:15;85.47;;;44.00;;
31210;SDS011;17836;50.948;3.946;2023-02-13T08:58:41;80.13;;;39.88;;
31210;SDS011;17836;50.948;3.946;2023-02-13T09:01:06;70.70;;;37.67;;
31210;SDS011;17836;50.948;3.946;2023-02-13T09:03:32;75.88;;;38.83;;
31210;SDS011;17836;50.948;3.946;2023-02-13T09:05:58;78.40;;;39.42;;
31210;SDS011;17836;50.948;3.946;2023-02-13T09:08:23;66.50;;;36.15;;
31210;SDS011;17836;50.948;3.946;2023-02-13T09:10:53;66.95;;;37.85;;
31210;SDS011;17836;50.948;3.946;2023-02-13T09:13:19;81.90;;;42.95;;
31210;SDS011;17836;50.948;3.946;2023-02-13T09:15:45;61.13;;;35.95;;
31210;SDS011;17836;50.948;3.946;2023-02-13T09:18:10;67.90;;;38.33;;
31210;SDS011;17836;50.948;3.946;2023-02-13T09:20:35;62.97;;;35.13;;
31210;SDS011;17836;50.948;3.946;2023-02-13T09:23:01;59.75;;;34.90;;
31210;SDS011;17836;50.948;3.946;2023-02-13T09:25:26;60.00;;;33.88;;
31210;SDS011;17836;50.948;3.946;2023-02-13T09:27:52;60.60;;;32.47;;
31210;SDS011;17836;50.948;3.946;2023-02-13T09:30:18;55.78;;;32.67;;
31210;SDS011;17836;50.948;3.946;2023-02-13T09:32:48;58.55;;;33.05;;
31210;SDS011;17836;50.948;3.946;2023-02-13T09:35:14;57.45;;;31.15;;
31210;SDS011;17836;50.948;3.946;2023-02-13T09:37:39;52.17;;;30.02;;
31210;SDS011;17836;50.948;3.946;2023-02-13T09:40:05;44.53;;;25.60;;
31210;SDS011;17836;50.948;3.946;2023-02-13T09:42:32;42.65;;;25.95;;
31210;SDS011;17836;50.948;3.946;2023-02-13T09:45:02;38.47;;;24.52;;
31210;SDS011;17836;50.948;3.946;2023-02-13T09:47:30;40.42;;;23.98;;
31210;SDS011;17836;50.948;3.946;2023-02-13T09:50:01;35.33;;;22.60;;
31210;SDS011;17836;50.948;3.946;2023-02-13T09:52:27;37.92;;;23.15;;
31210;SDS011;17836;50.948;3.946;2023-02-13T09:54:55;36.92;;;22.38;;
31210;SDS011;17836;50.948;3.946;2023-02-13T09:57:30;39.40;;;23.10;;
31210;SDS011;17836;50.948;3.946;2023-02-13T10:00:06;35.50;;;21.52;;
31210;SDS011;17836;50.948;3.946;2023-02-13T10:07:46;37.60;;;21.48;;
31210;SDS011;17836;50.948;3.946;2023-02-13T10:12:49;36.70;;;21.10;;
31210;SDS011;17836;50.948;3.946;2023-02-13T10:17:41;39.93;;;22.80;;
31210;SDS011;17836;50.948;3.946;2023-02-13T10:22:43;36.55;;;22.63;;
31210;SDS011;17836;50.948;3.946;2023-02-13T10:25:17;47.03;;;26.25;;
31210;SDS011;17836;50.948;3.946;2023-02-13T10:27:45;66.70;;;31.20;;
31210;SDS011;17836;50.948;3.946;2023-02-13T10:30:19;62.10;;;33.22;;
31210;SDS011;17836;50.948;3.946;2023-02-13T10:35:35;49.78;;;26.45;;
31210;SDS011;17836;50.948;3.946;2023-02-13T10:38:03;51.85;;;26.35;;
31210;SDS011;17836;50.948;3.946;2023-02-13T10:40:37;43.33;;;24.75;;
31210;SDS011;17836;50.948;3.946;2023-02-13T10:43:06;52.20;;;26.67;;
31210;SDS011;17836;50.948;3.946;2023-02-13T10:50:29;45.83;;;24.07;;
31210;SDS011;17836;50.948;3.946;2023-02-13T11:02:51;40.75;;;22.08;;
31210;SDS011;17836;50.948;3.946;2023-02-13T11:05:18;40.10;;;21.40;;
31210;SDS011;17836;50.948;3.946;2023-02-13T11:07:45;38.03;;;22.58;;
31210;SDS011;17836;50.948;3.946;2023-02-13T11:10:17;36.97;;;21.90;;
31210;SDS011;17836;50.948;3.946;2023-02-13T11:12:44;36.30;;;22.27;;
31210;SDS011;17836;50.948;3.946;2023-02-13T11:17:44;37.63;;;22.52;;
31210;SDS011;17836;50.948;3.946;2023-02-13T11:22:48;33.20;;;20.48;;
31210;SDS011;17836;50.948;3.946;2023-02-13T11:27:42;39.65;;;21.40;;
31210;SDS011;17836;50.948;3.946;2023-02-13T11:35:28;35.78;;;20.63;;
31210;SDS011;17836;50.948;3.946;2023-02-13T11:38:10;36.23;;;20.80;;
31210;SDS011;17836;50.948;3.946;2023-02-13T11:40:36;37.92;;;21.65;;
31210;SDS011;17836;50.948;3.946;2023-02-13T11:43:04;43.47;;;21.88;;
31210;SDS011;17836;50.948;3.946;2023-02-13T11:45:30;38.47;;;21.63;;
31210;SDS011;17836;50.948;3.946;2023-02-13T11:47:55;36.75;;;20.90;;
31210;SDS011;17836;50.948;3.946;2023-02-13T11:57:56;33.40;;;19.45;;
31210;SDS011;17836;50.948;3.946;2023-02-13T12:00:27;34.17;;;21.40;;
31210;SDS011;17836;50.948;3.946;2023-02-13T12:02:54;35.28;;;20.55;;
31210;SDS011;17836;50.948;3.946;2023-02-13T12:05:21;28.58;;;19.15;;
31210;SDS011;17836;50.948;3.946;2023-02-13T12:07:46;31.20;;;19.88;;
31210;SDS011;17836;50.948;3.946;2023-02-13T12:12:50;33.22;;;19.85;;
31210;SDS011;17836;50.948;3.946;2023-02-13T12:15:38;30.17;;;19.15;;
31210;SDS011;17836;50.948;3.946;2023-02-13T12:18:20;26.65;;;17.65;;
31210;SDS011;17836;50.948;3.946;2023-02-13T12:24:02;32.10;;;20.40;;
31210;SDS011;17836;50.948;3.946;2023-02-13T12:29:32;32.70;;;20.65;;
31210;SDS011;17836;50.948;3.946;2023-02-13T12:39:25;30.67;;;18.73;;
31210;SDS011;17836;50.948;3.946;2023-02-13T12:42:03;29.75;;;19.85;;
31210;SDS011;17836;50.948;3.946;2023-02-13T12:47:23;31.95;;;20.02;;
31210;SDS011;17836;50.948;3.946;2023-02-13T12:59:58;34.38;;;21.23;;
31210;SDS011;17836;50.948;3.946;2023-02-13T13:02:43;27.25;;;19.20;;
31210;SDS011;17836;50.948;3.946;2023-02-13T13:05:23;33.50;;;20.08;;
31210;SDS011;17836;50.948;3.946;2023-02-13T13:15:16;28.83;;;17.47;;
31210;SDS011;17836;50.948;3.946;2023-02-13T13:17:49;25.02;;;16.95;;
31210;SDS011;17836;50.948;3.946;2023-02-13T13:25:50;26.70;;;18.70;;
31210;SDS011;17836;50.948;3.946;2023-02-13T13:28:24;26.27;;;16.88;;
31210;SDS011;17836;50.948;3.946;2023-02-13T13:30:50;22.95;;;16.48;;
31210;SDS011;17836;50.948;3.946;2023-02-13T13:33:18;26.17;;;17.27;;
31210;SDS011;17836;50.948;3.946;2023-02-13T13:35:45;25.92;;;17.75;;
31210;SDS011;17836;50.948;3.946;2023-02-13T13:41:17;27.55;;;18.00;;
31210;SDS011;17836;50.948;3.946;2023-02-13T13:46:35;25.77;;;17.15;;
31210;SDS011;17836;50.948;3.946;2023-02-13T13:51:33;26.67;;;16.48;;
31210;SDS011;17836;50.948;3.946;2023-02-13T13:56:23;27.23;;;17.27;;
31210;SDS011;17836;50.948;3.946;2023-02-13T13:58:48;22.55;;;15.90;;
31210;SDS011;17836;50.948;3.946;2023-02-13T14:03:50;22.58;;;15.23;;
31210;SDS011;17836;50.948;3.946;2023-02-13T14:06:16;21.95;;;16.63;;
31210;SDS011;17836;50.948;3.946;2023-02-13T14:11:28;22.73;;;16.30;;
31210;SDS011;17836;50.948;3.946;2023-02-13T14:13:54;21.92;;;16.27;;
31210;SDS011;17836;50.948;3.946;2023-02-13T14:19:03;22.67;;;16.77;;
31210;SDS011;17836;50.948;3.946;2023-02-13T14:21:29;25.58;;;16.85;;
31210;SDS011;17836;50.948;3.946;2023-02-13T14:23:55;26.17;;;17.50;;
31210;SDS011;17836;50.948;3.946;2023-02-13T14:26:34;31.77;;;18.98;;
31210;SDS011;17836;50.948;3.946;2023-02-13T14:36:25;26.40;;;20.15;;
31210;SDS011;17836;50.948;3.946;2023-02-13T14:38:56;29.88;;;18.63;;
31210;SDS011;17836;50.948;3.946;2023-02-13T14:41:41;18.27;;;14.68;;
31210;SDS011;17836;50.948;3.946;2023-02-13T14:44:12;21.13;;;16.00;;
31210;SDS011;17836;50.948;3.946;2023-02-13T14:46:40;18.10;;;14.50;;
31210;SDS011;17836;50.948;3.946;2023-02-13T14:49:06;20.73;;;15.80;;
31210;SDS011;17836;50.948;3.946;2023-02-13T14:51:43;19.58;;;15.07;;
31210;SDS011;17836;50.948;3.946;2023-02-13T14:54:17;21.02;;;14.90;;
31210;SDS011;17836;50.948;3.946;2023-02-13T14:56:45;22.77;;;15.88;;
31210;SDS011;17836;50.948;3.946;2023-02-13T14:59:45;22.15;;;15.75;;
31210;SDS011;17836;50.948;3.946;2023-02-13T15:02:07;21.65;;;15.43;;
31210;SDS011;17836;50.948;3.946;2023-02-13T15:04:40;22.02;;;15.85;;
31210;SDS011;17836;50.948;3.946;2023-02-13T15:07:10;22.50;;;14.93;;
31210;SDS011;17836;50.948;3.946;2023-02-13T15:09:38;23.05;;;15.43;;
31210;SDS011;17836;50.948;3.946;2023-02-13T15:12:23;24.83;;;15.88;;
31210;SDS011;17836;50.948;3.946;2023-02-13T15:14:49;27.95;;;15.27;;
31210;SDS011;17836;50.948;3.946;2023-02-13T15:17:15;29.23;;;15.90;;
31210;SDS011;17836;50.948;3.946;2023-02-13T15:19:46;28.27;;;16.02;;
31210;SDS011;17836;50.948;3.946;2023-02-13T15:24:57;24.70;;;16.52;;
31210;SDS011;17836;50.948;3.946;2023-02-13T15:27:26;32.97;;;20.75;;
31210;SDS011;17836;50.948;3.946;2023-02-13T15:29:53;36.58;;;22.08;;
31210;SDS011;17836;50.948;3.946;2023-02-13T15:32:19;24.55;;;16.70;;
31210;SDS011;17836;50.948;3.946;2023-02-13T15:34:46;24.90;;;15.77;;
31210;SDS011;17836;50.948;3.946;2023-02-13T15:37:25;21.42;;;16.17;;
31210;SDS011;17836;50.948;3.946;2023-02-13T15:39:51;21.48;;;16.00;;
31210;SDS011;17836;50.948;3.946;2023-02-13T15:42:16;26.10;;;16.47;;
31210;SDS011;17836;50.948;3.946;2023-02-13T15:44:43;27.17;;;15.43;;
31210;SDS011;17836;50.948;3.946;2023-02-13T15:47:17;23.90;;;15.43;;
31210;SDS011;17836;50.948;3.946;2023-02-13T15:49:45;23.33;;;16.08;;
31210;SDS011;17836;50.948;3.946;2023-02-13T15:52:33;26.75;;;16.38;;
31210;SDS011;17836;50.948;3.946;2023-02-13T15:54:57;25.95;;;15.77;;
31210;SDS011;17836;50.948;3.946;2023-02-13T15:57:23;27.33;;;16.77;;
31210;SDS011;17836;50.948;3.946;2023-02-13T15:59:49;28.33;;;16.40;;
31210;SDS011;17836;50.948;3.946;2023-02-13T16:02:18;20.35;;;16.13;;
31210;SDS011;17836;50.948;3.946;2023-02-13T16:04:45;24.58;;;16.48;;
31210;SDS011;17836;50.948;3.946;2023-02-13T16:07:11;23.17;;;16.38;;
31210;SDS011;17836;50.948;3.946;2023-02-13T16:09:37;26.27;;;16.48;;
31210;SDS011;17836;50.948;3.946;2023-02-13T16:12:18;24.60;;;16.55;;
31210;SDS011;17836;50.948;3.946;2023-02-13T16:14:52;28.75;;;16.80;;
31210;SDS011;17836;50.948;3.946;2023-02-13T16:20:00;23.80;;;16.85;;
31210;SDS011;17836;50.948;3.946;2023-02-13T16:22:36;31.35;;;19.10;;
31210;SDS011;17836;50.948;3.946;2023-02-13T16:25:03;31.30;;;19.50;;
31210;SDS011;17836;50.948;3.946;2023-02-13T16:27:31;28.80;;;17.83;;
31210;SDS011;17836;50.948;3.946;2023-02-13T16:29:58;28.13;;;17.77;;
31210;SDS011;17836;50.948;3.946;2023-02-13T16:32:28;31.05;;;17.58;;
31210;SDS011;17836;50.948;3.946;2023-02-13T16:34:54;33.97;;;17.83;;
31210;SDS011;17836;50.948;3.946;2023-02-13T16:37:26;26.30;;;17.77;;
31210;SDS011;17836;50.948;3.946;2023-02-13T16:39:52;31.98;;;17.70;;
31210;SDS011;17836;50.948;3.946;2023-02-13T16:42:18;29.92;;;17.17;;
31210;SDS011;17836;50.948;3.946;2023-02-13T16:44:43;36.58;;;19.55;;
31210;SDS011;17836;50.948;3.946;2023-02-13T16:47:11;34.87;;;20.63;;
31210;SDS011;17836;50.948;3.946;2023-02-13T16:49:41;40.35;;;21.60;;
31210;SDS011;17836;50.948;3.946;2023-02-13T16:54:37;40.28;;;21.95;;
31210;SDS011;17836;50.948;3.946;2023-02-13T17:02:37;40.63;;;19.52;;
31210;SDS011;17836;50.948;3.946;2023-02-13T17:07:34;32.88;;;18.48;;
31210;SDS011;17836;50.948;3.946;2023-02-13T17:12:25;29.70;;;17.55;;
31210;SDS011;17836;50.948;3.946;2023-02-13T17:14:51;37.22;;;19.02;;
31210;SDS011;17836;50.948;3.946;2023-02-13T17:17:20;31.05;;;18.30;;
31210;SDS011;17836;50.948;3.946;2023-02-13T17:19:45;31.90;;;19.10;;
31210;SDS011;17836;50.948;3.946;2023-02-13T17:22:15;32.70;;;18.13;;
31210;SDS011;17836;50.948;3.946;2023-02-13T17:24:42;31.15;;;17.70;;
31210;SDS011;17836;50.948;3.946;2023-02-13T17:27:08;29.58;;;17.65;;
31210;SDS011;17836;50.948;3.946;2023-02-13T17:29:34;31.15;;;19.33;;
31210;SDS011;17836;50.948;3.946;2023-02-13T17:31:59;32.00;;;20.03;;
31210;SDS011;17836;50.948;3.946;2023-02-13T17:34:24;35.17;;;20.07;;